createdAt,value
2018-02-04T00:00:50.932Z,947.93
2018-02-04T00:01:50.938Z,947.94
2018-02-04T00:03:44.346Z,947.94
2018-02-04T00:04:44.319Z,947.88
2018-02-04T00:06:37.701Z,947.88
2018-02-04T00:07:37.695Z,947.87
2018-02-04T00:09:31.105Z,947.88
2018-02-04T00:10:31.080Z,947.90
2018-02-04T00:12:24.460Z,947.91
2018-02-04T00:13:24.465Z,947.97
2018-02-04T00:15:17.857Z,948.00
2018-02-04T00:16:17.840Z,948.03
2018-02-04T00:18:11.267Z,948.00
2018-02-04T00:19:11.268Z,948.00
2018-02-04T00:21:04.667Z,947.96
2018-02-04T00:22:04.667Z,947.95
2018-02-04T00:23:58.028Z,947.97
2018-02-04T00:24:58.029Z,948.00
2018-02-04T00:26:51.432Z,947.98
2018-02-04T00:27:51.408Z,947.98
2018-02-04T00:29:44.803Z,948.01
2018-02-04T00:30:44.818Z,948.02
2018-02-04T00:32:38.196Z,948.04
2018-02-04T00:33:38.179Z,948.09
2018-02-04T00:35:31.560Z,948.10
2018-02-04T00:36:31.570Z,948.09
2018-02-04T00:38:24.961Z,948.05
2018-02-04T00:39:24.942Z,948.09
2018-02-04T00:41:19.318Z,948.13
2018-02-04T00:42:19.316Z,948.15
2018-02-04T00:44:12.719Z,948.12
2018-02-04T00:45:12.695Z,948.14
2018-02-04T00:47:06.073Z,948.17
2018-02-04T00:48:06.078Z,948.19
2018-02-04T00:49:59.480Z,948.21
2018-02-04T00:50:59.458Z,948.20
2018-02-04T00:52:52.849Z,948.23
2018-02-04T00:53:52.834Z,948.25
2018-02-04T00:55:46.303Z,948.25
2018-02-04T00:56:46.279Z,948.25
2018-02-04T00:58:39.652Z,948.24
2018-02-04T00:59:39.652Z,948.23
2018-02-04T01:01:34.097Z,948.25
2018-02-04T01:02:34.056Z,948.26
2018-02-04T01:04:27.407Z,948.29
2018-02-04T01:05:27.429Z,948.29
2018-02-04T01:07:20.807Z,948.33
2018-02-04T01:08:20.787Z,948.33
2018-02-04T01:10:14.218Z,948.31
2018-02-04T01:11:14.196Z,948.31
2018-02-04T01:13:07.548Z,948.34
2018-02-04T01:14:07.549Z,948.36
2018-02-04T01:16:00.963Z,948.33
2018-02-04T01:17:00.946Z,948.38
2018-02-04T01:18:54.337Z,948.37
2018-02-04T01:19:54.338Z,948.37
2018-02-04T01:21:47.723Z,948.38
2018-02-04T01:22:47.705Z,948.39
2018-02-04T01:24:41.114Z,948.43
2018-02-04T01:25:41.084Z,948.44
2018-02-04T01:27:34.521Z,948.47
2018-02-04T01:28:34.510Z,948.46
2018-02-04T01:30:27.853Z,948.48
2018-02-04T01:31:27.856Z,948.45
2018-02-04T01:33:21.295Z,948.49
2018-02-04T01:34:21.281Z,948.52
2018-02-04T01:36:14.654Z,948.52
2018-02-04T01:37:14.659Z,948.53
2018-02-04T01:39:09.051Z,948.52
2018-02-04T01:40:09.040Z,948.56
2018-02-04T01:42:02.415Z,948.58
2018-02-04T01:43:02.445Z,948.58
2018-02-04T01:44:55.813Z,948.58
2018-02-04T01:45:55.797Z,948.61
2018-02-04T01:47:49.187Z,948.61
2018-02-04T01:48:49.187Z,948.62
2018-02-04T01:50:42.588Z,948.58
2018-02-04T01:51:42.581Z,948.59
2018-02-04T01:53:35.950Z,948.59
2018-02-04T01:54:35.950Z,948.57
2018-02-04T01:56:29.360Z,948.59
2018-02-04T01:57:29.339Z,948.62
2018-02-04T01:59:22.719Z,948.65
2018-02-04T02:00:22.719Z,948.61
2018-02-04T02:02:16.146Z,948.66
2018-02-04T02:03:16.130Z,948.63
2018-02-04T02:05:09.507Z,948.59
2018-02-04T02:06:09.485Z,948.62
2018-02-04T02:08:02.887Z,948.64
2018-02-04T02:09:02.878Z,948.63
2018-02-04T02:10:56.289Z,948.67
2018-02-04T02:11:56.290Z,948.65
2018-02-04T02:13:49.651Z,948.69
2018-02-04T02:14:49.651Z,948.67
2018-02-04T02:16:43.056Z,948.68
2018-02-04T02:17:43.039Z,948.67
2018-02-04T02:19:36.418Z,948.69
2018-02-04T02:20:36.414Z,948.72
2018-02-04T02:22:29.831Z,948.69
2018-02-04T02:23:29.802Z,948.75
2018-02-04T02:25:23.196Z,948.75
2018-02-04T02:26:23.185Z,948.75
2018-02-04T02:28:16.574Z,948.75
2018-02-04T02:29:16.559Z,948.75
2018-02-04T02:31:09.933Z,948.77
2018-02-04T02:32:09.936Z,948.75
2018-02-04T02:34:03.343Z,948.77
2018-02-04T02:35:03.317Z,948.77
2018-02-04T02:36:56.718Z,948.76
2018-02-04T02:37:56.700Z,948.77
2018-02-04T02:39:50.097Z,948.77
2018-02-04T02:40:50.088Z,948.75
2018-02-04T02:42:43.483Z,948.79
2018-02-04T02:43:43.456Z,948.74
2018-02-04T02:45:36.834Z,948.78
2018-02-04T02:46:36.833Z,948.85
2018-02-04T02:48:30.286Z,948.82
2018-02-04T02:49:30.269Z,948.85
2018-02-04T02:51:23.648Z,948.86
2018-02-04T02:52:23.667Z,948.87
2018-02-04T02:54:17.075Z,948.86
2018-02-04T02:55:17.035Z,948.83
2018-02-04T02:57:10.409Z,948.88
2018-02-04T02:58:10.416Z,948.87
2018-02-04T03:00:03.823Z,948.92
2018-02-04T03:01:03.799Z,948.90
2018-02-04T03:02:57.176Z,948.93
2018-02-04T03:03:57.180Z,949.01
2018-02-04T03:05:51.590Z,949.01
2018-02-04T03:06:51.557Z,949.00
2018-02-04T03:08:44.942Z,949.04
2018-02-04T03:09:44.948Z,948.99
2018-02-04T03:11:38.329Z,949.04
2018-02-04T03:12:38.314Z,949.04
2018-02-04T03:14:31.694Z,949.06
2018-02-04T03:15:31.701Z,949.06
2018-02-04T03:17:25.091Z,949.12
2018-02-04T03:18:25.084Z,949.14
2018-02-04T03:20:18.453Z,949.11
2018-02-04T03:21:18.454Z,949.19
2018-02-04T03:23:11.848Z,949.22
2018-02-04T03:24:11.839Z,949.22
2018-02-04T03:26:05.237Z,949.21
2018-02-04T03:27:05.214Z,949.22
2018-02-04T03:28:58.609Z,949.28
2018-02-04T03:29:58.591Z,949.25
2018-02-04T03:31:52.004Z,949.24
2018-02-04T03:32:51.976Z,949.30
2018-02-04T03:34:45.369Z,949.32
2018-02-04T03:35:45.349Z,949.30
2018-02-04T03:37:38.762Z,949.30
2018-02-04T03:38:38.731Z,949.33
2018-02-04T03:40:32.128Z,949.32
2018-02-04T03:41:32.110Z,949.35
2018-02-04T03:43:25.498Z,949.37
2018-02-04T03:44:25.490Z,949.36
2018-02-04T03:46:18.889Z,949.34
2018-02-04T03:47:18.874Z,949.36
2018-02-04T03:49:12.295Z,949.38
2018-02-04T03:50:12.264Z,949.37
2018-02-04T03:52:05.646Z,949.40
2018-02-04T03:53:05.644Z,949.39
2018-02-04T03:54:59.043Z,949.41
2018-02-04T03:55:59.023Z,949.37
2018-02-04T03:57:53.403Z,949.40
2018-02-04T03:58:53.415Z,949.39
2018-02-04T04:00:46.808Z,949.38
2018-02-04T04:01:46.786Z,949.43
2018-02-04T04:03:40.164Z,949.40
2018-02-04T04:04:40.166Z,949.39
2018-02-04T04:06:33.559Z,949.46
2018-02-04T04:07:33.540Z,949.46
2018-02-04T04:09:26.919Z,949.47
2018-02-04T04:10:26.924Z,949.48
2018-02-04T04:12:20.346Z,949.50
2018-02-04T04:13:20.347Z,949.46
2018-02-04T04:15:14.702Z,949.50
2018-02-04T04:16:14.700Z,949.51
2018-02-04T04:18:08.098Z,949.52
2018-02-04T04:19:08.083Z,949.51
2018-02-04T04:21:01.476Z,949.55
2018-02-04T04:22:01.459Z,949.55
2018-02-04T04:23:54.878Z,949.56
2018-02-04T04:24:54.839Z,949.55
2018-02-04T04:26:48.270Z,949.58
2018-02-04T04:27:48.268Z,949.57
2018-02-04T04:29:41.665Z,949.54
2018-02-04T04:30:41.651Z,949.56
2018-02-04T04:32:35.054Z,949.61
2018-02-04T04:33:35.037Z,949.61
2018-02-04T04:35:28.411Z,949.65
2018-02-04T04:36:28.411Z,949.67
2018-02-04T04:38:21.831Z,949.69
2018-02-04T04:39:21.806Z,949.72
2018-02-04T04:41:15.183Z,949.69
2018-02-04T04:42:15.189Z,949.72
2018-02-04T04:44:08.578Z,949.69
2018-02-04T04:45:08.565Z,949.74
2018-02-04T04:47:01.941Z,949.69
2018-02-04T04:48:01.941Z,949.72
2018-02-04T04:49:55.348Z,949.77
2018-02-04T04:50:55.334Z,949.76
2018-02-04T04:52:48.708Z,949.81
2018-02-04T04:53:48.707Z,949.81
2018-02-04T04:55:42.107Z,949.87
2018-02-04T04:56:42.089Z,949.88
2018-02-04T04:58:35.475Z,949.83
2018-02-04T04:59:35.476Z,949.87
2018-02-04T05:01:28.864Z,949.87
2018-02-04T05:02:28.852Z,949.87
2018-02-04T05:04:22.272Z,949.88
2018-02-04T05:05:22.273Z,949.88
2018-02-04T05:07:15.671Z,949.89
2018-02-04T05:08:15.650Z,949.91
2018-02-04T05:10:09.048Z,949.88
2018-02-04T05:11:09.031Z,949.85
2018-02-04T05:13:02.404Z,949.91
2018-02-04T05:14:02.416Z,949.88
2018-02-04T05:15:55.800Z,949.88
2018-02-04T05:16:55.782Z,949.89
2018-02-04T05:18:49.200Z,949.90
2018-02-04T05:19:49.160Z,949.91
2018-02-04T05:21:42.557Z,949.89
2018-02-04T05:22:42.543Z,949.97
2018-02-04T05:24:35.931Z,949.97
2018-02-04T05:25:35.918Z,949.99
2018-02-04T05:27:29.337Z,949.99
2018-02-04T05:28:29.294Z,950.04
2018-02-04T05:30:22.672Z,950.11
2018-02-04T05:31:22.678Z,950.09
2018-02-04T05:33:16.070Z,950.10
2018-02-04T05:34:16.062Z,950.10
2018-02-04T05:36:09.453Z,950.13
2018-02-04T05:37:09.436Z,950.12
2018-02-04T05:39:02.828Z,950.19
2018-02-04T05:40:02.834Z,950.22
2018-02-04T05:41:56.187Z,950.20
2018-02-04T05:42:56.186Z,950.23
2018-02-04T05:44:49.600Z,950.28
2018-02-04T05:45:49.564Z,950.26
2018-02-04T05:47:42.963Z,950.29
2018-02-04T05:48:42.941Z,950.33
2018-02-04T05:50:36.325Z,950.34
2018-02-04T05:51:36.317Z,950.35
2018-02-04T05:53:29.717Z,950.42
2018-02-04T05:54:29.697Z,950.43
2018-02-04T05:56:23.071Z,950.46
2018-02-04T05:57:23.071Z,950.45
2018-02-04T05:59:16.467Z,950.51
2018-02-04T06:00:16.447Z,950.53
2018-02-04T06:02:09.850Z,950.53
2018-02-04T06:03:09.825Z,950.56
2018-02-04T06:05:03.269Z,950.61
2018-02-04T06:06:03.268Z,950.64
2018-02-04T06:07:56.678Z,950.69
2018-02-04T06:08:56.646Z,950.69
2018-02-04T06:10:50.024Z,950.74
2018-02-04T06:11:50.032Z,950.76
2018-02-04T06:13:43.421Z,950.78
2018-02-04T06:14:43.402Z,950.80
2018-02-04T06:16:36.781Z,950.80
2018-02-04T06:17:36.783Z,950.81
2018-02-04T06:19:30.185Z,950.89
2018-02-04T06:20:30.157Z,950.84
2018-02-04T06:22:23.557Z,950.85
2018-02-04T06:23:23.533Z,950.88
2018-02-04T06:25:16.930Z,950.92
2018-02-04T06:26:16.913Z,950.96
2018-02-04T06:28:11.295Z,950.99
2018-02-04T06:29:11.296Z,950.98
2018-02-04T06:31:04.694Z,951.04
2018-02-04T06:32:04.698Z,951.03
2018-02-04T06:33:58.046Z,951.06
2018-02-04T06:34:58.053Z,951.05
2018-02-04T06:36:51.466Z,951.10
2018-02-04T06:37:51.427Z,951.11
2018-02-04T06:39:44.832Z,951.16
2018-02-04T06:40:44.799Z,951.17
2018-02-04T06:42:38.189Z,951.18
2018-02-04T06:43:38.180Z,951.23
2018-02-04T06:45:32.578Z,951.21
2018-02-04T06:46:32.558Z,951.24
2018-02-04T06:48:25.935Z,951.26
2018-02-04T06:49:25.936Z,951.27
2018-02-04T06:51:20.334Z,951.29
2018-02-04T06:52:20.316Z,951.34
2018-02-04T06:54:13.697Z,951.33
2018-02-04T06:55:13.713Z,951.38
2018-02-04T06:57:07.085Z,951.35
2018-02-04T06:58:07.066Z,951.35
2018-02-04T07:00:00.442Z,951.39
2018-02-04T07:01:00.448Z,951.39
2018-02-04T07:02:53.859Z,951.43
2018-02-04T07:03:53.830Z,951.47
2018-02-04T07:05:47.200Z,951.50
2018-02-04T07:06:47.194Z,951.49
2018-02-04T07:08:40.613Z,951.50
2018-02-04T07:09:40.619Z,951.50
2018-02-04T07:11:33.958Z,951.51
2018-02-04T07:12:33.966Z,951.54
2018-02-04T07:14:27.359Z,951.60
2018-02-04T07:15:27.329Z,951.63
2018-02-04T07:17:20.762Z,951.67
2018-02-04T07:18:20.715Z,951.68
2018-02-04T07:20:14.116Z,951.69
2018-02-04T07:21:14.096Z,951.66
2018-02-04T07:23:07.472Z,951.68
2018-02-04T07:24:07.476Z,951.63
2018-02-04T07:26:00.875Z,951.69
2018-02-04T07:27:00.856Z,951.69
2018-02-04T07:28:54.244Z,951.67
2018-02-04T07:29:54.243Z,951.69
2018-02-04T07:31:47.639Z,951.73
2018-02-04T07:32:47.623Z,951.75
2018-02-04T07:34:41.001Z,951.76
2018-02-04T07:35:41.009Z,951.76
2018-02-04T07:37:34.406Z,951.77
2018-02-04T07:38:34.384Z,951.74
2018-02-04T07:40:27.786Z,951.77
2018-02-04T07:41:27.767Z,951.72
2018-02-04T07:43:21.226Z,951.79
2018-02-04T07:44:21.166Z,951.79
2018-02-04T07:46:14.537Z,951.80
2018-02-04T07:47:14.515Z,951.80
2018-02-04T07:49:07.893Z,951.85
2018-02-04T07:50:07.916Z,951.88
2018-02-04T07:52:01.291Z,951.93
2018-02-04T07:53:01.273Z,951.96
2018-02-04T07:54:54.651Z,951.96
2018-02-04T07:55:54.659Z,951.97
2018-02-04T07:57:48.047Z,952.00
2018-02-04T07:58:48.028Z,951.97
2018-02-04T08:00:41.407Z,952.02
2018-02-04T08:01:41.408Z,952.05
2018-02-04T08:03:34.802Z,952.06
2018-02-04T08:04:34.798Z,952.10
2018-02-04T08:06:28.187Z,952.09
2018-02-04T08:07:28.183Z,952.13
2018-02-04T08:09:21.566Z,952.11
2018-02-04T08:10:21.546Z,952.16
2018-02-04T08:12:14.927Z,952.29
2018-02-04T08:13:14.933Z,952.26
2018-02-04T08:15:08.336Z,952.36
2018-02-04T08:16:08.337Z,952.42
2018-02-04T08:18:01.690Z,952.52
2018-02-04T08:19:01.691Z,952.50
2018-02-04T08:20:55.106Z,952.47
2018-02-04T08:21:55.085Z,952.52
2018-02-04T08:23:48.456Z,952.48
2018-02-04T08:24:48.456Z,952.50
2018-02-04T08:26:41.862Z,952.57
2018-02-04T08:27:41.852Z,952.56
2018-02-04T08:29:35.246Z,952.67
2018-02-04T08:30:35.217Z,952.66
2018-02-04T08:32:28.596Z,952.63
2018-02-04T08:33:28.596Z,952.60
2018-02-04T08:35:21.994Z,952.60
2018-02-04T08:36:21.970Z,952.64
2018-02-04T08:38:15.348Z,952.62
2018-02-04T08:39:15.347Z,952.65
2018-02-04T08:41:08.743Z,952.67
2018-02-04T08:42:08.726Z,952.72
2018-02-04T08:44:02.108Z,952.73
2018-02-04T08:45:02.104Z,952.74
2018-02-04T08:46:55.512Z,952.77
2018-02-04T08:47:55.481Z,952.74
2018-02-04T08:49:48.863Z,952.77
2018-02-04T08:50:48.868Z,952.80
2018-02-04T08:52:42.256Z,952.88
2018-02-04T08:53:42.244Z,952.94
2018-02-04T08:55:35.616Z,953.01
2018-02-04T08:56:35.616Z,953.04
2018-02-04T08:58:29.012Z,953.05
2018-02-04T08:59:28.995Z,953.03
2018-02-04T09:01:22.372Z,953.05
2018-02-04T09:02:22.374Z,952.98
2018-02-04T09:04:15.770Z,952.98
2018-02-04T09:05:15.756Z,952.99
2018-02-04T09:07:09.132Z,952.94
2018-02-04T09:08:09.131Z,952.93
2018-02-04T09:10:02.531Z,952.92
2018-02-04T09:11:02.514Z,952.95
2018-02-04T09:12:55.891Z,952.97
2018-02-04T09:13:55.892Z,952.94
2018-02-04T09:15:49.300Z,952.94
2018-02-04T09:16:49.283Z,952.95
2018-02-04T09:18:42.690Z,953.01
2018-02-04T09:19:42.660Z,953.00
2018-02-04T09:21:36.039Z,953.02
2018-02-04T09:22:36.047Z,953.03
2018-02-04T09:24:29.441Z,953.07
2018-02-04T09:25:29.423Z,953.07
2018-02-04T09:27:22.803Z,953.06
2018-02-04T09:28:22.810Z,953.08
2018-02-04T09:30:16.200Z,953.11
2018-02-04T09:31:16.183Z,953.07
2018-02-04T09:33:09.564Z,953.12
2018-02-04T09:34:09.562Z,953.14
2018-02-04T09:36:02.959Z,953.17
2018-02-04T09:37:02.941Z,953.20
2018-02-04T09:38:56.330Z,953.26
2018-02-04T09:39:56.330Z,953.25
2018-02-04T09:41:49.728Z,953.21
2018-02-04T09:42:49.710Z,953.23
2018-02-04T09:44:43.091Z,953.22
2018-02-04T09:45:43.090Z,953.26
2018-02-04T09:47:36.489Z,953.36
2018-02-04T09:48:36.469Z,953.38
2018-02-04T09:50:29.850Z,953.39
2018-02-04T09:51:29.850Z,953.39
2018-02-04T09:53:23.288Z,953.47
2018-02-04T09:54:23.266Z,953.54
2018-02-04T09:56:16.657Z,953.54
2018-02-04T09:57:16.659Z,953.58
2018-02-04T09:59:10.060Z,953.62
2018-02-04T10:00:10.040Z,953.67
2018-02-04T10:02:03.450Z,953.68
2018-02-04T10:03:03.450Z,953.64
2018-02-04T10:04:56.807Z,953.62
2018-02-04T10:05:56.810Z,953.58
2018-02-04T10:07:50.210Z,953.59
2018-02-04T10:08:50.195Z,953.58
2018-02-04T10:10:43.579Z,953.62
2018-02-04T10:11:43.580Z,953.76
2018-02-04T10:13:36.979Z,953.86
2018-02-04T10:14:36.964Z,953.92
2018-02-04T10:16:30.359Z,954.00
2018-02-04T10:17:30.358Z,953.93
2018-02-04T10:19:23.770Z,953.88
2018-02-04T10:20:23.758Z,953.88
2018-02-04T10:22:17.141Z,953.89
2018-02-04T10:23:17.147Z,953.76
2018-02-04T10:25:10.550Z,953.71
2018-02-04T10:26:10.533Z,953.79
2018-02-04T10:28:03.932Z,953.87
2018-02-04T10:29:03.935Z,953.76
2018-02-04T10:30:57.337Z,953.81
2018-02-04T10:31:57.327Z,953.82
2018-02-04T10:33:50.707Z,953.84
2018-02-04T10:34:50.719Z,953.89
2018-02-04T10:36:44.134Z,953.93
2018-02-04T10:37:44.122Z,953.96
2018-02-04T10:39:37.504Z,953.96
2018-02-04T10:40:37.514Z,954.02
2018-02-04T10:42:30.918Z,954.10
2018-02-04T10:43:30.925Z,954.17
2018-02-04T10:45:24.290Z,954.17
2018-02-04T10:46:24.294Z,954.15
2018-02-04T10:48:17.701Z,954.08
2018-02-04T10:49:17.686Z,954.04
2018-02-04T10:51:11.076Z,954.04
2018-02-04T10:52:11.080Z,953.95
2018-02-04T10:54:04.491Z,954.06
2018-02-04T10:55:04.489Z,954.09
2018-02-04T10:56:57.890Z,954.16
2018-02-04T10:57:57.874Z,954.22
2018-02-04T10:59:51.267Z,954.11
2018-02-04T11:00:51.281Z,954.17
2018-02-04T11:02:44.190Z,954.26
2018-02-04T11:03:44.180Z,954.31
2018-02-04T11:05:37.573Z,954.34
2018-02-04T11:06:37.578Z,954.41
2018-02-04T11:08:30.988Z,954.49
2018-02-04T11:09:30.975Z,954.49
2018-02-04T11:11:24.370Z,954.52
2018-02-04T11:12:24.381Z,953.87
2018-02-04T11:14:17.792Z,954.07
2018-02-04T11:15:17.784Z,954.40
2018-02-04T11:17:11.169Z,953.90
2018-02-04T11:18:11.180Z,953.87
2018-02-04T11:20:04.616Z,954.40
2018-02-04T11:21:04.580Z,954.03
2018-02-04T11:22:57.978Z,954.32
2018-02-04T11:23:57.980Z,954.35
2018-02-04T11:25:51.408Z,954.23
2018-02-04T11:26:51.391Z,954.19
2018-02-04T11:28:44.293Z,954.26
2018-02-04T11:29:44.300Z,954.13
2018-02-04T11:31:37.218Z,954.32
2018-02-04T11:32:37.207Z,953.96
2018-02-04T11:34:30.109Z,953.88
2018-02-04T11:35:30.120Z,953.86
2018-02-04T11:37:23.034Z,954.20
2018-02-04T11:38:23.023Z,954.27
2018-02-04T11:40:16.416Z,954.44
2018-02-04T11:41:16.425Z,954.34
2018-02-04T11:43:09.344Z,954.07
2018-02-04T11:44:09.339Z,954.16
2018-02-04T11:46:02.254Z,954.40
2018-02-04T11:47:02.237Z,953.87
2018-02-04T11:48:55.136Z,953.97
2018-02-04T11:49:55.143Z,953.89
2018-02-04T11:51:48.066Z,954.74
2018-02-04T11:52:48.044Z,954.64
2018-02-04T11:54:41.436Z,955.02
2018-02-04T11:55:41.443Z,954.70
2018-02-04T11:57:34.366Z,953.95
2018-02-04T11:58:34.350Z,953.96
2018-02-04T12:00:27.248Z,953.84
2018-02-04T12:01:27.253Z,953.92
2018-02-04T12:03:20.663Z,953.87
2018-02-04T12:04:20.652Z,953.91
2018-02-04T12:06:13.551Z,953.99
2018-02-04T12:07:13.553Z,953.94
2018-02-04T12:09:06.468Z,953.99
2018-02-04T12:10:06.457Z,953.95
2018-02-04T12:11:59.347Z,954.02
2018-02-04T12:12:59.353Z,954.09
2018-02-04T12:14:52.271Z,954.20
2018-02-04T12:15:52.250Z,954.22
2018-02-04T12:17:45.146Z,954.32
2018-02-04T12:18:45.147Z,954.34
2018-02-04T12:20:38.555Z,954.38
2018-02-04T12:21:38.543Z,954.37
2018-02-04T12:23:31.438Z,954.40
2018-02-04T12:24:31.438Z,954.35
2018-02-04T12:26:24.845Z,954.32
2018-02-04T12:27:24.874Z,954.26
2018-02-04T12:29:18.263Z,954.13
2018-02-04T12:30:18.270Z,954.10
2018-02-04T12:32:11.185Z,953.98
2018-02-04T12:33:11.168Z,953.94
2018-02-04T12:35:04.060Z,953.88
2018-02-04T12:36:04.065Z,953.88
2018-02-04T12:37:56.974Z,953.92
2018-02-04T12:38:56.958Z,953.88
2018-02-04T12:40:50.367Z,953.90
2018-02-04T12:41:50.348Z,953.94
2018-02-04T12:43:43.238Z,953.94
2018-02-04T12:44:43.241Z,953.95
2018-02-04T12:46:36.152Z,953.98
2018-02-04T12:47:36.163Z,953.98
2018-02-04T12:49:29.521Z,954.08
2018-02-04T12:50:29.525Z,954.07
2018-02-04T12:52:22.435Z,954.05
2018-02-04T12:53:22.417Z,954.05
2018-02-04T12:55:15.800Z,954.04
2018-02-04T12:56:15.859Z,954.03
2018-02-04T12:58:08.718Z,954.08
2018-02-04T12:59:08.701Z,954.08
2018-02-04T13:01:01.594Z,954.10
2018-02-04T13:02:01.593Z,954.08
2018-02-04T13:03:55.005Z,954.07
2018-02-04T13:04:54.991Z,954.11
2018-02-04T13:06:47.878Z,954.14
2018-02-04T13:07:47.883Z,954.18
2018-02-04T13:09:41.284Z,954.22
2018-02-04T13:10:41.269Z,954.29
2018-02-04T13:12:34.652Z,954.34
2018-02-04T13:13:34.657Z,954.33
2018-02-04T13:15:27.565Z,954.42
2018-02-04T13:16:27.549Z,954.45
2018-02-04T13:18:20.934Z,954.50
2018-02-04T13:19:20.935Z,954.46
2018-02-04T13:21:13.845Z,954.40
2018-02-04T13:22:13.830Z,954.36
2018-02-04T13:24:06.843Z,954.37
2018-02-04T13:25:06.732Z,954.36
2018-02-04T13:27:00.116Z,954.37
2018-02-04T13:28:00.117Z,954.36
2018-02-04T13:29:53.029Z,954.48
2018-02-04T13:30:53.011Z,954.48
2018-02-04T13:32:46.394Z,954.49
2018-02-04T13:33:46.401Z,954.50
2018-02-04T13:35:39.304Z,954.52
2018-02-04T13:36:39.289Z,954.53
2018-02-04T13:38:32.673Z,954.48
2018-02-04T13:39:32.729Z,954.48
2018-02-04T13:41:25.585Z,954.49
2018-02-04T13:42:25.568Z,954.43
2018-02-04T13:44:18.952Z,954.50
2018-02-04T13:45:18.955Z,954.53
2018-02-04T13:47:11.866Z,954.58
2018-02-04T13:48:11.848Z,954.66
2018-02-04T13:50:04.740Z,954.60
2018-02-04T13:51:04.742Z,954.50
2018-02-04T13:52:58.143Z,954.48
2018-02-04T13:53:58.127Z,954.47
2018-02-04T13:55:51.018Z,954.39
2018-02-04T13:56:51.020Z,954.37
2018-02-04T13:58:43.932Z,954.32
2018-02-04T13:59:43.913Z,954.36
2018-02-04T14:01:37.329Z,954.42
2018-02-04T14:02:37.310Z,954.44
2018-02-04T14:04:30.248Z,954.51
2018-02-04T14:05:30.252Z,954.52
2018-02-04T14:07:23.628Z,954.55
2018-02-04T14:08:23.614Z,954.55
2018-02-04T14:10:16.502Z,954.59
2018-02-04T14:11:16.504Z,954.61
2018-02-04T14:13:09.412Z,954.67
2018-02-04T14:14:09.398Z,954.69
2018-02-04T14:16:02.781Z,954.65
2018-02-04T14:17:02.785Z,954.59
2018-02-04T14:18:56.198Z,954.59
2018-02-04T14:19:56.183Z,954.54
2018-02-04T14:21:49.078Z,954.66
2018-02-04T14:22:49.074Z,954.72
2018-02-04T14:24:42.477Z,954.66
2018-02-04T14:25:42.461Z,954.64
2018-02-04T14:27:35.350Z,954.59
2018-02-04T14:28:35.357Z,954.59
2018-02-04T14:30:28.781Z,954.56
2018-02-04T14:31:28.742Z,954.58
2018-02-04T14:33:21.633Z,954.50
2018-02-04T14:34:21.634Z,954.52
2018-02-04T14:36:14.562Z,954.46
2018-02-04T14:37:14.546Z,954.47
2018-02-04T14:39:07.459Z,954.49
2018-02-04T14:40:07.441Z,954.52
2018-02-04T14:42:00.349Z,954.46
2018-02-04T14:43:00.331Z,954.45
2018-02-04T14:44:53.779Z,954.50
2018-02-04T14:45:53.718Z,954.49
2018-02-04T14:47:47.103Z,954.55
2018-02-04T14:48:47.106Z,954.58
2018-02-04T14:50:40.515Z,954.62
2018-02-04T14:51:40.500Z,954.59
2018-02-04T14:53:33.882Z,954.55
2018-02-04T14:54:33.888Z,954.55
2018-02-04T14:56:27.296Z,954.52
2018-02-04T14:57:27.280Z,954.50
2018-02-04T14:59:20.167Z,954.65
2018-02-04T15:00:20.170Z,954.69
2018-02-04T15:02:13.611Z,954.73
2018-02-04T15:03:13.593Z,954.70
2018-02-04T15:05:06.485Z,954.64
2018-02-04T15:06:06.488Z,954.65
2018-02-04T15:07:59.900Z,954.62
2018-02-04T15:08:59.884Z,954.61
2018-02-04T15:10:53.278Z,954.57
2018-02-04T15:11:53.285Z,954.59
2018-02-04T15:13:46.684Z,954.63
2018-02-04T15:14:46.667Z,954.62
2018-02-04T15:16:40.143Z,954.66
2018-02-04T15:17:40.093Z,954.62
2018-02-04T15:19:33.454Z,954.58
2018-02-04T15:20:33.444Z,954.57
2018-02-04T15:22:26.862Z,954.56
2018-02-04T15:23:26.845Z,954.57
2018-02-04T15:25:20.229Z,954.56
2018-02-04T15:26:20.233Z,954.57
2018-02-04T15:28:13.636Z,954.57
2018-02-04T15:29:13.620Z,954.60
2018-02-04T15:31:07.006Z,954.60
2018-02-04T15:32:07.005Z,954.60
2018-02-04T15:34:00.408Z,954.63
2018-02-04T15:35:00.392Z,954.67
2018-02-04T15:36:53.775Z,954.67
2018-02-04T15:37:53.781Z,954.66
2018-02-04T15:39:47.181Z,954.62
2018-02-04T15:40:47.164Z,954.61
2018-02-04T15:42:40.596Z,954.59
2018-02-04T15:43:40.561Z,954.64
2018-02-04T15:45:33.931Z,954.65
2018-02-04T15:46:33.932Z,954.71
2018-02-04T15:48:27.336Z,954.69
2018-02-04T15:49:27.317Z,954.69
2018-02-04T15:51:20.698Z,954.77
2018-02-04T15:52:20.699Z,954.83
2018-02-04T15:54:14.102Z,954.85
2018-02-04T15:55:14.085Z,954.83
2018-02-04T15:57:07.483Z,954.83
2018-02-04T15:58:07.478Z,954.86
2018-02-04T16:00:00.879Z,954.88
2018-02-04T16:01:00.866Z,954.87
2018-02-04T16:02:54.268Z,954.91
2018-02-04T16:03:54.269Z,954.93
2018-02-04T16:05:47.670Z,954.93
2018-02-04T16:06:47.658Z,954.91
2018-02-04T16:08:41.054Z,954.92
2018-02-04T16:09:41.037Z,954.97
2018-02-04T16:11:34.418Z,955.01
2018-02-04T16:12:34.419Z,955.00
2018-02-04T16:14:27.820Z,955.02
2018-02-04T16:15:27.806Z,954.98
2018-02-04T16:17:21.185Z,955.00
2018-02-04T16:18:21.185Z,955.02
2018-02-04T16:20:14.585Z,954.97
2018-02-04T16:21:14.566Z,955.00
2018-02-04T16:23:07.945Z,954.98
2018-02-04T16:24:07.948Z,955.00
2018-02-04T16:26:01.349Z,955.00
2018-02-04T16:27:01.328Z,955.03
2018-02-04T16:28:54.719Z,955.02
2018-02-04T16:29:54.720Z,955.02
2018-02-04T16:31:48.121Z,955.02
2018-02-04T16:32:48.103Z,955.05
2018-02-04T16:34:41.500Z,955.07
2018-02-04T16:35:41.481Z,955.08
2018-02-04T16:37:34.863Z,955.07
2018-02-04T16:38:34.869Z,955.09
2018-02-04T16:40:28.261Z,955.09
2018-02-04T16:41:28.244Z,955.12
2018-02-04T16:43:21.626Z,955.07
2018-02-04T16:44:21.623Z,955.07
2018-02-04T16:46:15.022Z,955.09
2018-02-04T16:47:15.005Z,955.04
2018-02-04T16:49:08.408Z,955.11
2018-02-04T16:50:08.394Z,955.17
2018-02-04T16:52:01.793Z,955.18
2018-02-04T16:53:01.774Z,955.15
2018-02-04T16:54:56.237Z,955.19
2018-02-04T16:55:56.157Z,955.20
2018-02-04T16:57:49.543Z,955.24
2018-02-04T16:58:49.545Z,955.22
2018-02-04T17:00:42.944Z,955.23
2018-02-04T17:01:42.925Z,955.26
2018-02-04T17:03:36.303Z,955.22
2018-02-04T17:04:36.306Z,955.25
2018-02-04T17:06:29.703Z,955.28
2018-02-04T17:07:29.682Z,955.29
2018-02-04T17:09:23.062Z,955.28
2018-02-04T17:10:23.062Z,955.26
2018-02-04T17:12:16.523Z,955.32
2018-02-04T17:13:16.444Z,955.38
2018-02-04T17:15:09.818Z,955.34
2018-02-04T17:16:09.822Z,955.36
2018-02-04T17:18:03.283Z,955.36
2018-02-04T17:19:03.264Z,955.36
2018-02-04T17:20:56.641Z,955.41
2018-02-04T17:21:56.647Z,955.42
2018-02-04T17:23:50.048Z,955.43
2018-02-04T17:24:50.037Z,955.43
2018-02-04T17:26:42.911Z,955.42
2018-02-04T17:27:42.911Z,955.45
2018-02-04T17:29:36.309Z,955.46
2018-02-04T17:30:36.394Z,955.45
2018-02-04T17:32:29.664Z,955.46
2018-02-04T17:33:29.665Z,955.46
2018-02-04T17:35:22.570Z,955.49
2018-02-04T17:36:22.552Z,955.46
2018-02-04T17:38:15.923Z,955.48
2018-02-04T17:39:15.924Z,955.44
2018-02-04T17:41:09.320Z,955.45
2018-02-04T17:42:09.334Z,955.44
2018-02-04T17:44:02.679Z,955.52
2018-02-04T17:45:02.680Z,955.54
2018-02-04T17:46:55.583Z,955.57
2018-02-04T17:47:55.562Z,955.52
2018-02-04T17:49:48.442Z,955.58
2018-02-04T17:50:48.441Z,955.58
2018-02-04T17:52:41.343Z,955.58
2018-02-04T17:53:41.324Z,955.62
2018-02-04T17:55:34.699Z,955.64
2018-02-04T17:56:34.699Z,955.62
2018-02-04T17:58:27.601Z,955.66
2018-02-04T17:59:27.582Z,955.65
2018-02-04T18:01:21.011Z,955.67